sensor_id;sensor_type;location;lat;lon;timestamp;temperature;humidity
26505;DHT22;19493;48.042;7.584;2024-02-28T00:01:59;7.20;99.90
26505;DHT22;19493;48.042;7.584;2024-02-28T00:04:25;7.20;99.90
26505;DHT22;19493;48.042;7.584;2024-02-28T00:06:50;7.10;99.90
26505;DHT22;19493;48.042;7.584;2024-02-28T00:09:16;7.10;99.90
26505;DHT22;19493;48.042;7.584;2024-02-28T00:11:46;7.00;99.90
26505;DHT22;19493;48.042;7.584;2024-02-28T00:14:12;7.00;99.90
26505;DHT22;19493;48.042;7.584;2024-02-28T00:16:45;7.00;99.90
26505;DHT22;19493;48.042;7.584;2024-02-28T00:19:11;7.00;99.90
26505;DHT22;19493;48.042;7.584;2024-02-28T00:21:38;6.90;99.90
26505;DHT22;19493;48.042;7.584;2024-02-28T00:24:04;6.90;99.90
26505;DHT22;19493;48.042;7.584;2024-02-28T00:26:29;6.90;99.90
26505;DHT22;19493;48.042;7.584;2024-02-28T00:28:55;6.90;99.90
26505;DHT22;19493;48.042;7.584;2024-02-28T00:31:22;7.00;99.90
26505;DHT22;19493;48.042;7.584;2024-02-28T00:33:47;7.10;99.90
26505;DHT22;19493;48.042;7.584;2024-02-28T00:36:13;7.10;99.90
26505;DHT22;19493;48.042;7.584;2024-02-28T00:38:40;7.10;99.90
26505;DHT22;19493;48.042;7.584;2024-02-28T00:41:06;7.20;99.90
26505;DHT22;19493;48.042;7.584;2024-02-28T00:43:32;7.20;99.90
26505;DHT22;19493;48.042;7.584;2024-02-28T00:45:57;7.20;99.90
26505;DHT22;19493;48.042;7.584;2024-02-28T00:48:24;7.20;99.90
26505;DHT22;19493;48.042;7.584;2024-02-28T00:50:49;7.20;99.90
26505;DHT22;19493;48.042;7.584;2024-02-28T00:53:15;7.20;99.90
26505;DHT22;19493;48.042;7.584;2024-02-28T00:55:41;7.20;99.90
26505;DHT22;19493;48.042;7.584;2024-02-28T00:58:07;7.20;99.90
26505;DHT22;19493;48.042;7.584;2024-02-28T01:00:33;7.20;99.90
26505;DHT22;19493;48.042;7.584;2024-02-28T01:02:58;7.20;99.90
26505;DHT22;19493;48.042;7.584;2024-02-28T01:05:24;7.10;99.90
26505;DHT22;19493;48.042;7.584;2024-02-28T01:07:50;7.10;99.90
26505;DHT22;19493;48.042;7.584;2024-02-28T01:10:15;7.10;99.90
26505;DHT22;19493;48.042;7.584;2024-02-28T01:12:41;7.10;99.90
26505;DHT22;19493;48.042;7.584;2024-02-28T01:15:07;7.20;99.90
26505;DHT22;19493;48.042;7.584;2024-02-28T01:17:33;7.10;99.90
26505;DHT22;19493;48.042;7.584;2024-02-28T01:19:58;7.20;99.90
26505;DHT22;19493;48.042;7.584;2024-02-28T01:22:24;7.20;99.90
26505;DHT22;19493;48.042;7.584;2024-02-28T01:24:49;7.20;99.90
26505;DHT22;19493;48.042;7.584;2024-02-28T01:27:15;7.20;99.90
26505;DHT22;19493;48.042;7.584;2024-02-28T01:29:41;7.10;99.90
26505;DHT22;19493;48.042;7.584;2024-02-28T01:32:06;7.10;99.90
26505;DHT22;19493;48.042;7.584;2024-02-28T01:34:32;7.10;99.90
26505;DHT22;19493;48.042;7.584;2024-02-28T01:36:58;7.10;99.90
26505;DHT22;19493;48.042;7.584;2024-02-28T01:39:23;7.00;99.90
26505;DHT22;19493;48.042;7.584;2024-02-28T01:41:53;7.00;99.90
26505;DHT22;19493;48.042;7.584;2024-02-28T01:44:19;7.00;99.90
26505;DHT22;19493;48.042;7.584;2024-02-28T01:46:45;6.90;99.90
26505;DHT22;19493;48.042;7.584;2024-02-28T01:49:11;6.90;99.90
26505;DHT22;19493;48.042;7.584;2024-02-28T01:51:37;6.90;99.90
26505;DHT22;19493;48.042;7.584;2024-02-28T01:54:03;6.90;99.90
26505;DHT22;19493;48.042;7.584;2024-02-28T01:56:29;6.80;99.90
26505;DHT22;19493;48.042;7.584;2024-02-28T01:58:56;6.80;99.90
26505;DHT22;19493;48.042;7.584;2024-02-28T02:01:22;6.80;99.90
26505;DHT22;19493;48.042;7.584;2024-02-28T02:03:48;6.80;99.90
26505;DHT22;19493;48.042;7.584;2024-02-28T02:06:14;6.80;99.90
26505;DHT22;19493;48.042;7.584;2024-02-28T02:08:40;6.80;99.90
26505;DHT22;19493;48.042;7.584;2024-02-28T02:11:06;6.80;99.90
26505;DHT22;19493;48.042;7.584;2024-02-28T02:13:32;6.80;99.90
26505;DHT22;19493;48.042;7.584;2024-02-28T02:15:58;6.70;99.90
26505;DHT22;19493;48.042;7.584;2024-02-28T02:18:23;6.70;99.90
26505;DHT22;19493;48.042;7.584;2024-02-28T02:20:59;6.70;99.90
26505;DHT22;19493;48.042;7.584;2024-02-28T02:23:26;6.70;99.90
26505;DHT22;19493;48.042;7.584;2024-02-28T02:25:52;6.60;99.90
26505;DHT22;19493;48.042;7.584;2024-02-28T02:28:18;6.60;99.90
26505;DHT22;19493;48.042;7.584;2024-02-28T02:30:44;6.60;99.90
26505;DHT22;19493;48.042;7.584;2024-02-28T02:33:10;6.60;99.90
26505;DHT22;19493;48.042;7.584;2024-02-28T02:35:36;6.60;99.90
26505;DHT22;19493;48.042;7.584;2024-02-28T02:38:02;6.60;99.90
26505;DHT22;19493;48.042;7.584;2024-02-28T02:40:28;6.60;99.90
26505;DHT22;19493;48.042;7.584;2024-02-28T02:42:53;6.50;99.90
26505;DHT22;19493;48.042;7.584;2024-02-28T02:45:19;6.50;99.90
26505;DHT22;19493;48.042;7.584;2024-02-28T02:47:44;6.50;99.90
26505;DHT22;19493;48.042;7.584;2024-02-28T02:50:10;6.50;99.90
26505;DHT22;19493;48.042;7.584;2024-02-28T02:52:36;6.50;99.90
26505;DHT22;19493;48.042;7.584;2024-02-28T02:55:02;6.50;99.90
26505;DHT22;19493;48.042;7.584;2024-02-28T02:57:28;6.50;99.90
26505;DHT22;19493;48.042;7.584;2024-02-28T02:59:53;6.50;99.90
26505;DHT22;19493;48.042;7.584;2024-02-28T03:02:19;6.50;99.90
26505;DHT22;19493;48.042;7.584;2024-02-28T03:04:44;6.50;99.90
26505;DHT22;19493;48.042;7.584;2024-02-28T03:07:10;6.50;99.90
26505;DHT22;19493;48.042;7.584;2024-02-28T03:09:36;6.50;99.90
26505;DHT22;19493;48.042;7.584;2024-02-28T03:12:01;6.50;99.90
26505;DHT22;19493;48.042;7.584;2024-02-28T03:14:27;6.50;99.90
26505;DHT22;19493;48.042;7.584;2024-02-28T03:16:53;6.50;99.90
26505;DHT22;19493;48.042;7.584;2024-02-28T03:19:19;6.50;99.90
26505;DHT22;19493;48.042;7.584;2024-02-28T03:21:45;6.40;99.90
26505;DHT22;19493;48.042;7.584;2024-02-28T03:24:10;6.50;99.90
26505;DHT22;19493;48.042;7.584;2024-02-28T03:26:36;6.40;99.90
26505;DHT22;19493;48.042;7.584;2024-02-28T03:29:02;6.40;99.90
26505;DHT22;19493;48.042;7.584;2024-02-28T03:31:28;6.40;99.90
26505;DHT22;19493;48.042;7.584;2024-02-28T03:33:53;6.40;99.90
26505;DHT22;19493;48.042;7.584;2024-02-28T03:36:19;6.40;99.90
26505;DHT22;19493;48.042;7.584;2024-02-28T03:38:45;6.40;99.90
26505;DHT22;19493;48.042;7.584;2024-02-28T03:41:11;6.40;99.90
26505;DHT22;19493;48.042;7.584;2024-02-28T03:43:37;6.40;99.90
26505;DHT22;19493;48.042;7.584;2024-02-28T03:46:03;6.40;99.90
26505;DHT22;19493;48.042;7.584;2024-02-28T03:48:28;6.40;99.90
26505;DHT22;19493;48.042;7.584;2024-02-28T03:50:54;6.40;99.90
26505;DHT22;19493;48.042;7.584;2024-02-28T03:53:19;6.40;99.90
26505;DHT22;19493;48.042;7.584;2024-02-28T03:55:45;6.40;99.90
26505;DHT22;19493;48.042;7.584;2024-02-28T03:58:11;6.30;99.90
26505;DHT22;19493;48.042;7.584;2024-02-28T04:00:37;6.30;99.90
26505;DHT22;19493;48.042;7.584;2024-02-28T04:03:03;6.30;99.90
26505;DHT22;19493;48.042;7.584;2024-02-28T04:05:29;6.30;99.90
26505;DHT22;19493;48.042;7.584;2024-02-28T04:07:55;6.30;99.90
26505;DHT22;19493;48.042;7.584;2024-02-28T04:10:21;6.20;99.90
26505;DHT22;19493;48.042;7.584;2024-02-28T04:12:47;6.20;99.90
26505;DHT22;19493;48.042;7.584;2024-02-28T04:15:12;6.10;99.90
26505;DHT22;19493;48.042;7.584;2024-02-28T04:17:39;6.00;99.90
26505;DHT22;19493;48.042;7.584;2024-02-28T04:20:09;6.00;99.90
26505;DHT22;19493;48.042;7.584;2024-02-28T04:22:35;6.00;99.90
26505;DHT22;19493;48.042;7.584;2024-02-28T04:25:00;6.00;99.90
26505;DHT22;19493;48.042;7.584;2024-02-28T04:27:26;5.90;99.90
26505;DHT22;19493;48.042;7.584;2024-02-28T04:29:51;5.90;99.90
26505;DHT22;19493;48.042;7.584;2024-02-28T04:32:17;5.90;99.90
26505;DHT22;19493;48.042;7.584;2024-02-28T04:34:43;5.80;99.90
26505;DHT22;19493;48.042;7.584;2024-02-28T04:37:08;5.80;99.90
26505;DHT22;19493;48.042;7.584;2024-02-28T04:39:34;5.70;99.90
26505;DHT22;19493;48.042;7.584;2024-02-28T04:41:59;5.70;99.90
26505;DHT22;19493;48.042;7.584;2024-02-28T04:44:25;5.60;99.90
26505;DHT22;19493;48.042;7.584;2024-02-28T04:46:50;5.50;99.90
26505;DHT22;19493;48.042;7.584;2024-02-28T04:49:16;5.50;99.90
26505;DHT22;19493;48.042;7.584;2024-02-28T04:51:42;5.40;99.90
26505;DHT22;19493;48.042;7.584;2024-02-28T04:54:07;5.30;99.90
26505;DHT22;19493;48.042;7.584;2024-02-28T04:56:33;5.30;99.90
26505;DHT22;19493;48.042;7.584;2024-02-28T04:58:58;5.20;99.90
26505;DHT22;19493;48.042;7.584;2024-02-28T05:01:24;5.20;99.90
26505;DHT22;19493;48.042;7.584;2024-02-28T05:03:49;5.20;99.90
26505;DHT22;19493;48.042;7.584;2024-02-28T05:06:15;5.20;99.90
26505;DHT22;19493;48.042;7.584;2024-02-28T05:08:41;5.20;99.90
26505;DHT22;19493;48.042;7.584;2024-02-28T05:11:07;5.20;99.90
26505;DHT22;19493;48.042;7.584;2024-02-28T05:13:32;5.20;99.90
26505;DHT22;19493;48.042;7.584;2024-02-28T05:15:58;5.20;99.90
26505;DHT22;19493;48.042;7.584;2024-02-28T05:18:24;5.20;99.90
26505;DHT22;19493;48.042;7.584;2024-02-28T05:20:51;5.20;99.90
26505;DHT22;19493;48.042;7.584;2024-02-28T05:23:16;5.30;99.90
26505;DHT22;19493;48.042;7.584;2024-02-28T05:25:42;5.30;99.90
26505;DHT22;19493;48.042;7.584;2024-02-28T05:28:07;5.30;99.90
26505;DHT22;19493;48.042;7.584;2024-02-28T05:30:33;5.30;99.90
26505;DHT22;19493;48.042;7.584;2024-02-28T05:32:59;5.30;99.90
26505;DHT22;19493;48.042;7.584;2024-02-28T05:35:24;5.20;99.90
26505;DHT22;19493;48.042;7.584;2024-02-28T05:37:53;5.10;99.90
26505;DHT22;19493;48.042;7.584;2024-02-28T05:40:20;5.00;99.90
26505;DHT22;19493;48.042;7.584;2024-02-28T05:42:45;4.80;99.90
26505;DHT22;19493;48.042;7.584;2024-02-28T05:45:11;4.70;99.90
26505;DHT22;19493;48.042;7.584;2024-02-28T05:47:37;4.60;99.90
26505;DHT22;19493;48.042;7.584;2024-02-28T05:50:04;4.60;99.90
26505;DHT22;19493;48.042;7.584;2024-02-28T05:52:30;4.50;99.90
26505;DHT22;19493;48.042;7.584;2024-02-28T05:54:56;4.40;99.90
26505;DHT22;19493;48.042;7.584;2024-02-28T05:57:22;4.30;99.90
26505;DHT22;19493;48.042;7.584;2024-02-28T05:59:49;4.30;99.90
26505;DHT22;19493;48.042;7.584;2024-02-28T06:02:14;4.30;99.90
26505;DHT22;19493;48.042;7.584;2024-02-28T06:04:40;4.30;99.90
26505;DHT22;19493;48.042;7.584;2024-02-28T06:07:06;4.30;99.90
26505;DHT22;19493;48.042;7.584;2024-02-28T06:09:32;4.30;99.90
26505;DHT22;19493;48.042;7.584;2024-02-28T06:11:57;4.30;99.90
26505;DHT22;19493;48.042;7.584;2024-02-28T06:14:23;4.30;99.90
26505;DHT22;19493;48.042;7.584;2024-02-28T06:16:48;4.20;99.90
26505;DHT22;19493;48.042;7.584;2024-02-28T06:19:14;4.20;99.90
26505;DHT22;19493;48.042;7.584;2024-02-28T06:21:40;4.20;99.90
26505;DHT22;19493;48.042;7.584;2024-02-28T06:24:05;4.10;99.90
26505;DHT22;19493;48.042;7.584;2024-02-28T06:26:31;4.10;99.90
26505;DHT22;19493;48.042;7.584;2024-02-28T06:29:00;4.10;99.90
26505;DHT22;19493;48.042;7.584;2024-02-28T06:31:27;4.00;99.90
26505;DHT22;19493;48.042;7.584;2024-02-28T06:33:56;4.00;99.90
26505;DHT22;19493;48.042;7.584;2024-02-28T06:36:22;4.10;99.90
26505;DHT22;19493;48.042;7.584;2024-02-28T06:38:48;4.10;99.90
26505;DHT22;19493;48.042;7.584;2024-02-28T06:41:13;4.00;99.90
26505;DHT22;19493;48.042;7.584;2024-02-28T06:43:39;4.00;99.90
26505;DHT22;19493;48.042;7.584;2024-02-28T06:46:05;4.00;99.90
26505;DHT22;19493;48.042;7.584;2024-02-28T06:48:30;4.00;99.90
26505;DHT22;19493;48.042;7.584;2024-02-28T06:50:56;4.00;99.90
26505;DHT22;19493;48.042;7.584;2024-02-28T06:53:23;4.00;99.90
26505;DHT22;19493;48.042;7.584;2024-02-28T06:55:48;3.90;99.90
26505;DHT22;19493;48.042;7.584;2024-02-28T06:58:14;3.90;99.90
26505;DHT22;19493;48.042;7.584;2024-02-28T07:00:40;3.90;99.90
26505;DHT22;19493;48.042;7.584;2024-02-28T07:03:06;3.90;99.90
26505;DHT22;19493;48.042;7.584;2024-02-28T07:05:32;3.90;99.90
26505;DHT22;19493;48.042;7.584;2024-02-28T07:07:59;3.80;99.90
26505;DHT22;19493;48.042;7.584;2024-02-28T07:10:25;3.80;99.90
26505;DHT22;19493;48.042;7.584;2024-02-28T07:12:50;3.80;99.90
26505;DHT22;19493;48.042;7.584;2024-02-28T07:15:16;3.80;99.90
26505;DHT22;19493;48.042;7.584;2024-02-28T07:17:45;3.80;99.90
26505;DHT22;19493;48.042;7.584;2024-02-28T07:20:11;4.00;99.90
26505;DHT22;19493;48.042;7.584;2024-02-28T07:22:38;4.10;99.90
26505;DHT22;19493;48.042;7.584;2024-02-28T07:25:04;4.20;99.90
26505;DHT22;19493;48.042;7.584;2024-02-28T07:27:30;4.30;99.90
26505;DHT22;19493;48.042;7.584;2024-02-28T07:29:56;4.30;99.90
26505;DHT22;19493;48.042;7.584;2024-02-28T07:32:22;4.50;99.90
26505;DHT22;19493;48.042;7.584;2024-02-28T07:34:48;4.60;99.90
26505;DHT22;19493;48.042;7.584;2024-02-28T07:37:14;4.70;99.90
26505;DHT22;19493;48.042;7.584;2024-02-28T07:39:40;4.70;99.90
26505;DHT22;19493;48.042;7.584;2024-02-28T07:42:05;4.70;99.90
26505;DHT22;19493;48.042;7.584;2024-02-28T07:44:31;4.80;99.90
26505;DHT22;19493;48.042;7.584;2024-02-28T07:46:58;4.90;99.90
26505;DHT22;19493;48.042;7.584;2024-02-28T07:49:24;5.00;99.90
26505;DHT22;19493;48.042;7.584;2024-02-28T07:51:50;5.30;99.90
26505;DHT22;19493;48.042;7.584;2024-02-28T07:54:16;5.60;99.90
26505;DHT22;19493;48.042;7.584;2024-02-28T07:56:41;6.00;99.90
26505;DHT22;19493;48.042;7.584;2024-02-28T07:59:07;6.30;99.90
26505;DHT22;19493;48.042;7.584;2024-02-28T08:01:33;6.70;99.90
26505;DHT22;19493;48.042;7.584;2024-02-28T08:03:59;6.90;99.90
26505;DHT22;19493;48.042;7.584;2024-02-28T08:06:25;7.10;99.90
26505;DHT22;19493;48.042;7.584;2024-02-28T08:08:51;7.10;99.90
26505;DHT22;19493;48.042;7.584;2024-02-28T08:11:16;7.10;99.90
26505;DHT22;19493;48.042;7.584;2024-02-28T08:13:44;7.20;99.90
26505;DHT22;19493;48.042;7.584;2024-02-28T08:16:10;7.20;99.90
26505;DHT22;19493;48.042;7.584;2024-02-28T08:18:36;7.10;99.90
26505;DHT22;19493;48.042;7.584;2024-02-28T08:21:01;7.20;99.90
26505;DHT22;19493;48.042;7.584;2024-02-28T08:23:31;7.10;99.90
26505;DHT22;19493;48.042;7.584;2024-02-28T08:25:56;7.00;99.90
26505;DHT22;19493;48.042;7.584;2024-02-28T08:28:22;6.70;99.90
26505;DHT22;19493;48.042;7.584;2024-02-28T08:30:48;6.80;99.90
26505;DHT22;19493;48.042;7.584;2024-02-28T08:33:14;6.70;99.90
26505;DHT22;19493;48.042;7.584;2024-02-28T08:35:40;6.90;99.90
26505;DHT22;19493;48.042;7.584;2024-02-28T08:38:06;6.90;99.90
26505;DHT22;19493;48.042;7.584;2024-02-28T08:40:31;7.00;99.90
26505;DHT22;19493;48.042;7.584;2024-02-28T08:42:57;7.20;99.90
26505;DHT22;19493;48.042;7.584;2024-02-28T08:45:23;7.30;99.90
26505;DHT22;19493;48.042;7.584;2024-02-28T08:47:49;7.40;99.90
26505;DHT22;19493;48.042;7.584;2024-02-28T08:50:14;7.80;99.90
26505;DHT22;19493;48.042;7.584;2024-02-28T08:52:40;8.20;99.90
26505;DHT22;19493;48.042;7.584;2024-02-28T08:55:06;9.10;99.90
26505;DHT22;19493;48.042;7.584;2024-02-28T08:57:31;9.80;99.90
26505;DHT22;19493;48.042;7.584;2024-02-28T08:59:58;10.60;99.90
26505;DHT22;19493;48.042;7.584;2024-02-28T09:02:23;11.20;99.90
26505;DHT22;19493;48.042;7.584;2024-02-28T09:04:49;11.70;99.90
26505;DHT22;19493;48.042;7.584;2024-02-28T09:07:18;12.00;99.90
26505;DHT22;19493;48.042;7.584;2024-02-28T09:09:45;12.70;99.90
26505;DHT22;19493;48.042;7.584;2024-02-28T09:12:11;12.70;99.90
26505;DHT22;19493;48.042;7.584;2024-02-28T09:14:37;12.50;99.90
26505;DHT22;19493;48.042;7.584;2024-02-28T09:17:03;13.00;99.90
26505;DHT22;19493;48.042;7.584;2024-02-28T09:19:30;13.70;99.90
26505;DHT22;19493;48.042;7.584;2024-02-28T09:21:55;13.60;99.90
26505;DHT22;19493;48.042;7.584;2024-02-28T09:24:21;13.80;99.90
26505;DHT22;19493;48.042;7.584;2024-02-28T09:26:47;14.20;99.90
26505;DHT22;19493;48.042;7.584;2024-02-28T09:29:12;14.40;99.90
26505;DHT22;19493;48.042;7.584;2024-02-28T09:31:38;14.70;99.80
26505;DHT22;19493;48.042;7.584;2024-02-28T09:34:03;15.30;98.10
26505;DHT22;19493;48.042;7.584;2024-02-28T09:36:33;15.30;97.30
26505;DHT22;19493;48.042;7.584;2024-02-28T09:38:59;16.00;96.30
26505;DHT22;19493;48.042;7.584;2024-02-28T09:41:26;16.60;94.50
26505;DHT22;19493;48.042;7.584;2024-02-28T09:43:53;17.50;91.20
26505;DHT22;19493;48.042;7.584;2024-02-28T09:46:19;17.20;88.30
26505;DHT22;19493;48.042;7.584;2024-02-28T09:48:46;16.70;88.40
26505;DHT22;19493;48.042;7.584;2024-02-28T09:51:14;16.70;87.70
26505;DHT22;19493;48.042;7.584;2024-02-28T09:53:41;17.20;87.90
26505;DHT22;19493;48.042;7.584;2024-02-28T09:56:07;17.40;84.50
26505;DHT22;19493;48.042;7.584;2024-02-28T09:58:33;17.40;84.80
26505;DHT22;19493;48.042;7.584;2024-02-28T10:01:02;17.50;82.80
26505;DHT22;19493;48.042;7.584;2024-02-28T10:03:30;17.80;83.10
26505;DHT22;19493;48.042;7.584;2024-02-28T10:05:55;17.80;80.70
26505;DHT22;19493;48.042;7.584;2024-02-28T10:08:21;18.20;81.00
26505;DHT22;19493;48.042;7.584;2024-02-28T10:10:47;18.70;77.30
26505;DHT22;19493;48.042;7.584;2024-02-28T10:13:15;19.20;74.50
26505;DHT22;19493;48.042;7.584;2024-02-28T10:15:40;19.80;73.00
26505;DHT22;19493;48.042;7.584;2024-02-28T10:18:06;19.80;70.00
26505;DHT22;19493;48.042;7.584;2024-02-28T10:20:32;19.90;69.70
26505;DHT22;19493;48.042;7.584;2024-02-28T10:22:57;19.40;68.10
26505;DHT22;19493;48.042;7.584;2024-02-28T10:25:23;18.50;70.80
26505;DHT22;19493;48.042;7.584;2024-02-28T10:27:49;18.30;71.30
26505;DHT22;19493;48.042;7.584;2024-02-28T10:30:15;18.20;72.70
26505;DHT22;19493;48.042;7.584;2024-02-28T10:32:49;18.80;71.80
26505;DHT22;19493;48.042;7.584;2024-02-28T10:35:17;18.50;71.40
26505;DHT22;19493;48.042;7.584;2024-02-28T10:37:45;19.10;70.90
26505;DHT22;19493;48.042;7.584;2024-02-28T10:40:13;20.00;70.10
26505;DHT22;19493;48.042;7.584;2024-02-28T10:42:42;20.60;65.40
26505;DHT22;19493;48.042;7.584;2024-02-28T10:45:09;21.50;63.80
26505;DHT22;19493;48.042;7.584;2024-02-28T10:47:40;21.30;63.30
26505;DHT22;19493;48.042;7.584;2024-02-28T10:50:07;21.50;62.50
26505;DHT22;19493;48.042;7.584;2024-02-28T10:52:34;21.60;60.50
26505;DHT22;19493;48.042;7.584;2024-02-28T10:55:05;21.50;59.60
26505;DHT22;19493;48.042;7.584;2024-02-28T10:57:33;21.60;60.50
26505;DHT22;19493;48.042;7.584;2024-02-28T10:59:59;21.70;59.80
26505;DHT22;19493;48.042;7.584;2024-02-28T11:02:26;21.10;60.30
26505;DHT22;19493;48.042;7.584;2024-02-28T11:04:52;21.20;61.20
26505;DHT22;19493;48.042;7.584;2024-02-28T11:07:21;22.10;58.60
26505;DHT22;19493;48.042;7.584;2024-02-28T11:09:47;22.70;57.50
26505;DHT22;19493;48.042;7.584;2024-02-28T11:12:29;22.80;56.50
26505;DHT22;19493;48.042;7.584;2024-02-28T11:14:59;21.70;57.30
26505;DHT22;19493;48.042;7.584;2024-02-28T11:17:29;22.80;57.60
26505;DHT22;19493;48.042;7.584;2024-02-28T11:19:55;23.30;55.10
26505;DHT22;19493;48.042;7.584;2024-02-28T11:22:21;23.40;54.20
26505;DHT22;19493;48.042;7.584;2024-02-28T11:24:47;24.10;52.80
26505;DHT22;19493;48.042;7.584;2024-02-28T11:27:15;24.10;51.90
26505;DHT22;19493;48.042;7.584;2024-02-28T11:29:40;22.50;52.20
26505;DHT22;19493;48.042;7.584;2024-02-28T11:32:06;20.70;56.90
26505;DHT22;19493;48.042;7.584;2024-02-28T11:34:34;20.50;59.30
26505;DHT22;19493;48.042;7.584;2024-02-28T11:36:59;21.40;58.20
26505;DHT22;19493;48.042;7.584;2024-02-28T11:39:25;22.20;56.40
26505;DHT22;19493;48.042;7.584;2024-02-28T11:41:52;22.30;55.80
26505;DHT22;19493;48.042;7.584;2024-02-28T11:44:18;22.60;55.50
26505;DHT22;19493;48.042;7.584;2024-02-28T11:46:48;23.30;54.10
26505;DHT22;19493;48.042;7.584;2024-02-28T11:49:14;24.60;51.60
26505;DHT22;19493;48.042;7.584;2024-02-28T11:51:44;24.90;50.60
26505;DHT22;19493;48.042;7.584;2024-02-28T11:54:10;24.40;51.80
26505;DHT22;19493;48.042;7.584;2024-02-28T11:56:39;25.00;51.00
26505;DHT22;19493;48.042;7.584;2024-02-28T11:59:05;24.30;50.20
26505;DHT22;19493;48.042;7.584;2024-02-28T12:01:43;24.40;50.80
26505;DHT22;19493;48.042;7.584;2024-02-28T12:04:12;25.00;49.70
26505;DHT22;19493;48.042;7.584;2024-02-28T12:06:39;25.50;48.60
26505;DHT22;19493;48.042;7.584;2024-02-28T12:09:08;24.40;49.40
26505;DHT22;19493;48.042;7.584;2024-02-28T12:11:37;24.80;48.00
26505;DHT22;19493;48.042;7.584;2024-02-28T12:14:07;24.50;49.00
26505;DHT22;19493;48.042;7.584;2024-02-28T12:16:36;24.20;48.60
26505;DHT22;19493;48.042;7.584;2024-02-28T12:19:07;24.30;48.80
26505;DHT22;19493;48.042;7.584;2024-02-28T12:21:33;24.90;49.10
26505;DHT22;19493;48.042;7.584;2024-02-28T12:23:58;25.80;46.90
26505;DHT22;19493;48.042;7.584;2024-02-28T12:26:24;26.20;46.60
26505;DHT22;19493;48.042;7.584;2024-02-28T12:28:50;26.50;45.40
26505;DHT22;19493;48.042;7.584;2024-02-28T12:31:15;26.50;44.50
26505;DHT22;19493;48.042;7.584;2024-02-28T12:33:41;25.60;45.70
26505;DHT22;19493;48.042;7.584;2024-02-28T12:36:07;25.50;46.00
26505;DHT22;19493;48.042;7.584;2024-02-28T12:38:33;24.60;46.00
26505;DHT22;19493;48.042;7.584;2024-02-28T12:40:59;25.00;47.20
26505;DHT22;19493;48.042;7.584;2024-02-28T12:43:24;25.70;46.50
26505;DHT22;19493;48.042;7.584;2024-02-28T12:45:53;26.40;46.70
26505;DHT22;19493;48.042;7.584;2024-02-28T12:48:18;26.60;44.90
26505;DHT22;19493;48.042;7.584;2024-02-28T12:50:44;27.30;44.00
26505;DHT22;19493;48.042;7.584;2024-02-28T12:53:10;27.80;43.20
26505;DHT22;19493;48.042;7.584;2024-02-28T12:55:35;27.60;42.70
26505;DHT22;19493;48.042;7.584;2024-02-28T12:58:02;27.10;42.10
26505;DHT22;19493;48.042;7.584;2024-02-28T13:00:30;26.80;41.30
26505;DHT22;19493;48.042;7.584;2024-02-28T13:02:56;26.40;42.20
26505;DHT22;19493;48.042;7.584;2024-02-28T13:05:22;25.20;42.60
26505;DHT22;19493;48.042;7.584;2024-02-28T13:07:47;23.60;45.20
26505;DHT22;19493;48.042;7.584;2024-02-28T13:10:13;23.40;47.50
26505;DHT22;19493;48.042;7.584;2024-02-28T13:12:38;24.10;46.00
26505;DHT22;19493;48.042;7.584;2024-02-28T13:15:05;23.90;46.40
26505;DHT22;19493;48.042;7.584;2024-02-28T13:17:31;24.80;45.90
26505;DHT22;19493;48.042;7.584;2024-02-28T13:19:57;25.30;45.20
26505;DHT22;19493;48.042;7.584;2024-02-28T13:22:22;25.00;45.10
26505;DHT22;19493;48.042;7.584;2024-02-28T13:24:48;24.00;46.20
26505;DHT22;19493;48.042;7.584;2024-02-28T13:27:13;23.60;47.10
26505;DHT22;19493;48.042;7.584;2024-02-28T13:29:39;24.00;46.50
26505;DHT22;19493;48.042;7.584;2024-02-28T13:32:05;23.20;47.10
26505;DHT22;19493;48.042;7.584;2024-02-28T13:34:30;22.90;47.80
26505;DHT22;19493;48.042;7.584;2024-02-28T13:36:57;22.90;47.30
26505;DHT22;19493;48.042;7.584;2024-02-28T13:39:23;23.00;49.00
26505;DHT22;19493;48.042;7.584;2024-02-28T13:41:52;24.50;47.80
26505;DHT22;19493;48.042;7.584;2024-02-28T13:44:18;24.20;46.70
26505;DHT22;19493;48.042;7.584;2024-02-28T13:46:45;22.80;47.80
26505;DHT22;19493;48.042;7.584;2024-02-28T13:49:10;20.10;51.40
26505;DHT22;19493;48.042;7.584;2024-02-28T13:51:36;17.80;56.50
26505;DHT22;19493;48.042;7.584;2024-02-28T13:54:02;16.20;60.70
26505;DHT22;19493;48.042;7.584;2024-02-28T13:56:27;14.80;64.60
26505;DHT22;19493;48.042;7.584;2024-02-28T13:58:54;14.20;68.50
26505;DHT22;19493;48.042;7.584;2024-02-28T14:01:20;13.80;70.30
26505;DHT22;19493;48.042;7.584;2024-02-28T14:03:46;13.40;71.50
26505;DHT22;19493;48.042;7.584;2024-02-28T14:06:11;13.30;73.40
26505;DHT22;19493;48.042;7.584;2024-02-28T14:08:37;13.30;72.70
26505;DHT22;19493;48.042;7.584;2024-02-28T14:11:02;13.00;73.20
26505;DHT22;19493;48.042;7.584;2024-02-28T14:13:28;12.80;75.10
26505;DHT22;19493;48.042;7.584;2024-02-28T14:15:54;12.70;75.80
26505;DHT22;19493;48.042;7.584;2024-02-28T14:18:20;12.80;76.80
26505;DHT22;19493;48.042;7.584;2024-02-28T14:20:46;12.80;75.20
26505;DHT22;19493;48.042;7.584;2024-02-28T14:23:12;12.70;75.40
26505;DHT22;19493;48.042;7.584;2024-02-28T14:25:37;12.60;75.60
26505;DHT22;19493;48.042;7.584;2024-02-28T14:28:03;12.50;77.10
26505;DHT22;19493;48.042;7.584;2024-02-28T14:30:29;12.50;77.20
26505;DHT22;19493;48.042;7.584;2024-02-28T14:32:54;12.50;78.10
26505;DHT22;19493;48.042;7.584;2024-02-28T14:35:20;12.50;77.90
26505;DHT22;19493;48.042;7.584;2024-02-28T14:37:46;12.40;80.00
26505;DHT22;19493;48.042;7.584;2024-02-28T14:40:11;12.50;79.30
26505;DHT22;19493;48.042;7.584;2024-02-28T14:42:41;12.40;78.90
26505;DHT22;19493;48.042;7.584;2024-02-28T14:45:10;12.30;79.70
26505;DHT22;19493;48.042;7.584;2024-02-28T14:47:37;12.30;80.80
26505;DHT22;19493;48.042;7.584;2024-02-28T14:50:04;12.30;81.50
26505;DHT22;19493;48.042;7.584;2024-02-28T14:52:29;12.40;81.20
26505;DHT22;19493;48.042;7.584;2024-02-28T14:54:55;12.40;81.90
26505;DHT22;19493;48.042;7.584;2024-02-28T14:57:20;12.40;83.40
26505;DHT22;19493;48.042;7.584;2024-02-28T14:59:46;12.20;82.30
26505;DHT22;19493;48.042;7.584;2024-02-28T15:02:12;12.20;83.10
26505;DHT22;19493;48.042;7.584;2024-02-28T15:04:38;12.10;82.50
26505;DHT22;19493;48.042;7.584;2024-02-28T15:07:04;12.00;83.80
26505;DHT22;19493;48.042;7.584;2024-02-28T15:09:29;12.00;85.20
26505;DHT22;19493;48.042;7.584;2024-02-28T15:11:55;12.10;85.00
26505;DHT22;19493;48.042;7.584;2024-02-28T15:14:22;12.40;83.90
26505;DHT22;19493;48.042;7.584;2024-02-28T15:16:48;13.80;80.10
26505;DHT22;19493;48.042;7.584;2024-02-28T15:19:14;15.60;73.90
26505;DHT22;19493;48.042;7.584;2024-02-28T15:21:40;16.80;69.10
26505;DHT22;19493;48.042;7.584;2024-02-28T15:24:06;17.70;66.10
26505;DHT22;19493;48.042;7.584;2024-02-28T15:26:31;17.60;64.70
26505;DHT22;19493;48.042;7.584;2024-02-28T15:28:57;15.90;66.80
26505;DHT22;19493;48.042;7.584;2024-02-28T15:31:22;14.20;71.30
26505;DHT22;19493;48.042;7.584;2024-02-28T15:33:48;13.20;75.80